Terminal Aerodrome Forecast
Issued by NWS Chicago, IL

Home | Current Version | Previous Version | Graphics & Text | Print | Product List | Glossary On
Versions: 1 2 3 4 5 6 7 8 9 10 11 12 13 14 15 16 17 18 19 20 21 22
000
FTUS43 KLOT 211528 AAA
TAFRFD
TAF AMD
KRFD 211528Z 2115/2212 30018G24KT P6SM OVC070
     FM212300 32010KT P6SM SCT040
     FM220200 32007KT P6SM SKC=

USA.gov is the U.S. government's official web portal to all federal, state and local government web resources and services.